createdAt,value
2022-07-31T00:05:00.180Z,46.01
2022-07-31T00:09:59.524Z,46.23
2022-07-31T00:14:57.641Z,46.33
2022-07-31T00:19:57.992Z,46.62
2022-07-31T00:24:56.122Z,46.53
2022-07-31T00:29:55.447Z,46.62
2022-07-31T00:34:55.764Z,46.62
2022-07-31T00:39:54.088Z,46.62
2022-07-31T00:44:53.433Z,46.62
2022-07-31T00:49:52.573Z,46.62
2022-07-31T00:54:52.876Z,46.62
2022-07-31T00:59:51.169Z,46.62
2022-07-31T01:04:49.493Z,46.62
2022-07-31T01:09:49.639Z,46.62
2022-07-31T01:14:48.971Z,46.53
2022-07-31T01:19:49.301Z,46.55
2022-07-31T01:24:47.619Z,46.53
2022-07-31T01:29:46.756Z,46.55
2022-07-31T01:34:46.094Z,46.55
2022-07-31T01:39:45.399Z,46.65
2022-07-31T01:44:46.579Z,46.65
2022-07-31T01:49:43.697Z,46.65
2022-07-31T01:54:42.874Z,46.35
2022-07-31T01:59:44.902Z,46.84
2022-07-31T02:04:41.249Z,47.05
2022-07-31T02:09:52.022Z,47.14
2022-07-31T02:14:39.598Z,47.14
2022-07-31T02:19:39.742Z,47.14
2022-07-31T02:24:37.926Z,46.95
2022-07-31T02:29:37.057Z,47.25
2022-07-31T02:34:36.364Z,46.95
2022-07-31T02:39:36.734Z,47.14
2022-07-31T02:44:34.966Z,47.14
2022-07-31T02:49:36.125Z,47.14
2022-07-31T02:54:32.438Z,47.05
2022-07-31T02:59:32.760Z,47.05
2022-07-31T03:04:32.077Z,47.14
2022-07-31T03:09:32.205Z,47.14
2022-07-31T03:14:32.825Z,47.27
2022-07-31T03:19:29.768Z,47.37
2022-07-31T03:24:29.900Z,47.47
2022-07-31T03:29:41.649Z,47.34
2022-07-31T03:34:29.216Z,47.86
2022-07-31T03:39:27.518Z,48.28
2022-07-31T03:44:26.820Z,48.16
2022-07-31T03:49:25.248Z,48.07
2022-07-31T03:54:26.409Z,47.86
2022-07-31T03:59:23.730Z,48.07
2022-07-31T04:04:23.074Z,48.07
2022-07-31T04:09:22.205Z,48.26
2022-07-31T04:14:22.339Z,47.96
2022-07-31T04:19:20.686Z,48.08
2022-07-31T04:24:21.007Z,48.08
2022-07-31T04:29:19.317Z,48.31
2022-07-31T04:34:20.628Z,49.53
2022-07-31T04:39:17.912Z,48.41
2022-07-31T04:44:17.224Z,49.55
2022-07-31T04:49:16.660Z,50.70
2022-07-31T04:54:15.783Z,51.10
2022-07-31T04:59:17.139Z,50.35
2022-07-31T05:04:14.486Z,50.15
2022-07-31T05:09:18.993Z,49.73
2022-07-31T05:14:14.138Z,49.63
2022-07-31T05:19:14.293Z,49.33
2022-07-31T05:24:11.710Z,49.73
2022-07-31T05:29:13.078Z,49.13
2022-07-31T05:34:10.195Z,49.13
2022-07-31T05:39:10.557Z,49.83
2022-07-31T05:44:09.686Z,49.23
2022-07-31T05:49:08.856Z,49.75
2022-07-31T05:54:07.022Z,49.53
2022-07-31T05:59:08.387Z,48.63
2022-07-31T06:04:05.528Z,49.73
2022-07-31T06:09:05.202Z,49.23
2022-07-31T06:14:04.166Z,49.30
2022-07-31T06:19:03.794Z,49.30
2022-07-31T06:24:02.713Z,49.18
2022-07-31T06:29:02.011Z,48.88
2022-07-31T06:34:02.145Z,49.70
2022-07-31T06:39:00.463Z,49.98
2022-07-31T06:44:00.808Z,49.38
2022-07-31T06:48:58.982Z,49.16
2022-07-31T06:53:58.133Z,49.26
2022-07-31T06:58:57.427Z,50.27
2022-07-31T07:03:56.729Z,49.46
2022-07-31T07:08:56.032Z,49.06
2022-07-31T07:13:56.322Z,49.26
2022-07-31T07:18:56.085Z,50.15
2022-07-31T07:23:53.872Z,49.23
2022-07-31T07:28:53.207Z,49.73
2022-07-31T07:33:54.548Z,49.83
2022-07-31T07:38:52.886Z,49.63
2022-07-31T07:43:52.561Z,49.63
2022-07-31T07:48:51.309Z,49.63
2022-07-31T07:53:49.467Z,49.73
2022-07-31T07:58:50.793Z,49.93
2022-07-31T08:03:52.069Z,50.33
2022-07-31T08:08:47.406Z,49.83
2022-07-31T08:13:51.254Z,49.80
2022-07-31T08:18:47.055Z,49.61
2022-07-31T08:23:45.385Z,49.61
2022-07-31T08:28:50.295Z,49.61
2022-07-31T08:33:43.746Z,49.91
2022-07-31T08:38:43.875Z,50.58
2022-07-31T08:44:02.330Z,49.29
2022-07-31T08:48:41.212Z,49.19
2022-07-31T08:53:42.373Z,49.19
2022-07-31T08:58:40.221Z,49.49
2022-07-31T09:03:40.959Z,49.49
2022-07-31T09:08:37.274Z,49.56
2022-07-31T09:13:37.616Z,50.56
2022-07-31T09:18:36.925Z,49.76
2022-07-31T09:23:36.240Z,49.86
2022-07-31T09:28:36.560Z,52.31
2022-07-31T09:33:35.913Z,49.66
2022-07-31T09:38:35.011Z,49.86
2022-07-31T09:43:34.344Z,49.74
2022-07-31T09:48:33.494Z,49.74
2022-07-31T09:53:31.796Z,49.54
2022-07-31T09:58:32.109Z,49.32
2022-07-31T10:03:30.433Z,49.21
2022-07-31T10:08:29.798Z,49.41
2022-07-31T10:13:28.919Z,49.41
2022-07-31T10:18:35.579Z,49.09
2022-07-31T10:23:30.415Z,49.29
2022-07-31T10:28:29.698Z,48.90
2022-07-31T10:33:43.421Z,50.51
2022-07-31T10:38:25.189Z,49.11
2022-07-31T10:43:24.609Z,48.80
2022-07-31T10:48:23.739Z,48.80
2022-07-31T10:53:34.560Z,49.88
2022-07-31T10:58:22.059Z,48.99
2022-07-31T11:03:23.220Z,48.90
2022-07-31T11:08:20.539Z,48.60
2022-07-31T11:13:20.689Z,48.47
2022-07-31T11:18:25.782Z,45.30
2022-07-31T11:23:18.179Z,46.00
2022-07-31T11:28:17.485Z,46.69
2022-07-31T11:33:17.810Z,47.38
2022-07-31T11:38:17.146Z,47.88
2022-07-31T11:43:25.975Z,47.98
2022-07-31T11:48:15.651Z,48.27
2022-07-31T11:53:13.795Z,48.38
2022-07-31T11:58:14.082Z,48.27
2022-07-31T12:03:12.448Z,50.23
2022-07-31T12:08:11.671Z,48.87
2022-07-31T12:13:15.621Z,48.87
2022-07-31T12:18:10.153Z,49.86
2022-07-31T12:23:40.652Z,48.77
2022-07-31T12:28:08.461Z,48.55
2022-07-31T12:33:07.794Z,48.55
2022-07-31T12:38:23.981Z,48.35
2022-07-31T12:43:08.304Z,48.45
2022-07-31T12:48:09.615Z,48.55
2022-07-31T12:53:04.905Z,48.55
2022-07-31T12:58:05.219Z,47.56
2022-07-31T13:03:03.672Z,48.43
2022-07-31T13:08:03.038Z,48.35
2022-07-31T13:13:02.174Z,48.45
2022-07-31T13:18:01.336Z,48.45
2022-07-31T13:23:02.651Z,48.05
2022-07-31T13:28:00.776Z,48.35
2022-07-31T13:32:59.097Z,48.57
2022-07-31T13:37:58.426Z,48.57
2022-07-31T13:42:57.792Z,47.88
2022-07-31T13:48:00.106Z,46.89
2022-07-31T13:52:57.066Z,46.79
2022-07-31T13:57:55.406Z,46.89
2022-07-31T14:02:57.134Z,47.09
2022-07-31T14:07:53.507Z,47.16
2022-07-31T14:12:52.846Z,47.16
2022-07-31T14:17:54.167Z,47.36
2022-07-31T14:22:52.443Z,47.36
2022-07-31T14:27:51.751Z,47.36
2022-07-31T14:32:52.059Z,47.26
2022-07-31T14:37:49.382Z,47.16
2022-07-31T14:42:48.700Z,47.04
2022-07-31T14:47:48.050Z,46.77
2022-07-31T14:52:48.199Z,46.45
2022-07-31T14:57:46.320Z,46.25
2022-07-31T15:02:46.455Z,46.05
2022-07-31T15:07:46.810Z,45.85
2022-07-31T15:12:43.919Z,45.34
2022-07-31T15:17:43.053Z,45.14
2022-07-31T15:22:42.367Z,43.04
2022-07-31T15:27:42.509Z,44.35
2022-07-31T15:32:40.842Z,44.64
2022-07-31T15:37:40.173Z,44.45
2022-07-31T15:42:39.304Z,44.32
2022-07-31T15:47:38.632Z,43.71
2022-07-31T15:52:37.961Z,44.13
2022-07-31T15:57:38.278Z,44.23
2022-07-31T16:02:37.595Z,43.91
2022-07-31T16:08:30.918Z,43.80
2022-07-31T16:12:35.076Z,43.41
2022-07-31T16:17:34.385Z,43.10
2022-07-31T16:22:33.738Z,42.99
2022-07-31T16:27:34.854Z,43.19
2022-07-31T16:32:32.174Z,42.88
2022-07-31T16:37:51.767Z,43.07
2022-07-31T16:42:30.686Z,43.17
2022-07-31T16:47:51.234Z,43.57
2022-07-31T16:52:30.042Z,43.25
2022-07-31T16:57:28.374Z,42.83
2022-07-31T17:02:26.779Z,42.83
2022-07-31T17:07:27.927Z,42.83
2022-07-31T17:12:26.072Z,43.05
2022-07-31T17:17:26.211Z,42.96
2022-07-31T17:22:24.357Z,42.96
2022-07-31T17:27:24.661Z,43.15
2022-07-31T17:32:25.052Z,43.25
2022-07-31T17:37:22.222Z,43.35
2022-07-31T17:42:21.597Z,43.66
2022-07-31T17:47:20.585Z,43.77
2022-07-31T17:52:19.756Z,43.77
2022-07-31T17:57:18.894Z,43.87
2022-07-31T18:02:18.079Z,43.96
2022-07-31T18:07:18.188Z,44.16
2022-07-31T18:12:17.014Z,46.55
2022-07-31T18:17:15.808Z,45.19
2022-07-31T18:22:15.998Z,45.89
2022-07-31T18:27:14.104Z,47.86
2022-07-31T18:32:13.247Z,48.58
2022-07-31T18:37:12.560Z,49.77
2022-07-31T18:42:11.909Z,51.30
2022-07-31T18:47:12.056Z,50.60
2022-07-31T18:52:11.398Z,50.43
2022-07-31T18:57:10.720Z,50.34
2022-07-31T19:02:11.968Z,50.63
2022-07-31T19:07:08.223Z,48.75
2022-07-31T19:12:08.917Z,47.96
2022-07-31T19:17:08.278Z,47.24
2022-07-31T19:22:06.189Z,46.94
2022-07-31T19:27:04.970Z,46.74
2022-07-31T19:32:05.308Z,46.25
2022-07-31T19:37:03.416Z,46.05
2022-07-31T19:42:12.051Z,45.85
2022-07-31T19:47:02.799Z,45.38
2022-07-31T19:52:01.137Z,45.38
2022-07-31T19:57:02.438Z,45.38
2022-07-31T20:01:59.677Z,44.89
2022-07-31T20:06:58.980Z,44.49
2022-07-31T20:11:59.202Z,44.49
2022-07-31T20:16:57.336Z,44.60
2022-07-31T20:21:56.652Z,44.60
2022-07-31T20:26:57.976Z,44.81
2022-07-31T20:31:56.300Z,45.00
2022-07-31T20:36:54.568Z,44.90
2022-07-31T20:41:53.878Z,44.90
2022-07-31T20:46:55.221Z,45.00
2022-07-31T20:51:53.341Z,45.20
2022-07-31T20:56:51.697Z,45.52
2022-07-31T21:01:51.901Z,45.50
2022-07-31T21:06:51.025Z,45.38
2022-07-31T21:11:51.353Z,45.28
2022-07-31T21:16:48.685Z,45.38
2022-07-31T21:21:47.821Z,45.38
2022-07-31T21:26:46.974Z,45.28
2022-07-31T21:31:50.022Z,45.18
2022-07-31T21:36:45.307Z,45.28
2022-07-31T21:41:44.643Z,45.08
2022-07-31T21:46:43.982Z,44.98
2022-07-31T21:51:42.947Z,44.98
2022-07-31T21:56:42.310Z,44.98
2022-07-31T22:01:41.493Z,44.89
2022-07-31T22:06:41.835Z,44.89
2022-07-31T22:11:39.816Z,44.89
2022-07-31T22:16:39.934Z,44.89
2022-07-31T22:21:38.248Z,44.89
2022-07-31T22:26:38.567Z,44.68
2022-07-31T22:31:36.880Z,44.68
2022-07-31T22:36:36.199Z,44.59
2022-07-31T22:41:38.543Z,44.78
2022-07-31T22:46:34.677Z,44.68
2022-07-31T22:51:38.464Z,44.59
2022-07-31T22:56:33.004Z,44.89
2022-07-31T23:01:33.169Z,44.78
2022-07-31T23:06:33.501Z,44.78
2022-07-31T23:11:31.778Z,44.89
2022-07-31T23:16:30.140Z,44.89
2022-07-31T23:21:29.265Z,44.89
2022-07-31T23:26:30.424Z,45.18
2022-07-31T23:31:29.794Z,45.28
2022-07-31T23:36:25.912Z,45.38
2022-07-31T23:41:26.080Z,45.57
2022-07-31T23:46:26.953Z,45.57
2022-07-31T23:51:24.675Z,45.38
2022-07-31T23:56:23.996Z,45.28
